Time;durP1;ratioP1;P1;durP2;ratioP2;P2;SDS_P1;SDS_P2;PMS_P1;PMS_P2;Temp;Humidity;BMP_temperature;BMP_pressure;BME280_temperature;BME280_humidity;BME280_pressure;Samples;Min_cycle;Max_cycle;Signal;HPM_P1;HPM_P2
2022/07/08 00:02:11;;;;;;;13.52;10.07;;;;;;;16.21;93.11;97623.84;10415047;28;20095;-55
2022/07/08 00:07:10;;;;;;;;;;;;;;;16.11;93.80;97622.34;10415863;28;20424;-55
2022/07/08 00:12:09;;;;;;;14.93;12.00;;;;;;;16.05;94.03;97612.91;10415092;28;19908;-55
2022/07/08 00:17:08;;;;;;;16.95;11.98;;;;;;;16.01;94.85;97612.09;10417418;28;20063;-55
2022/07/08 00:22:07;;;;;;;;;;;;;;;15.96;95.43;97608.75;10423545;28;20071;-55
2022/07/08 00:27:06;;;;;;;18.17;12.37;;;;;;;15.92;95.73;97611.47;10422757;28;19956;-55
2022/07/08 00:32:05;;;;;;;;;;;;;;;15.92;96.05;97607.09;10423300;28;20028;-55
2022/07/08 00:37:04;;;;;;;16.85;13.88;;;;;;;15.96;95.63;97615.75;10422501;28;19955;-56
2022/07/08 00:42:05;;;;;;;18.15;15.05;;;;;;;15.92;96.02;97612.34;10422241;28;20078;-55
2022/07/08 00:47:04;;;;;;;15.57;12.68;;;;;;;15.85;96.79;97618.63;10422198;28;20491;-55
2022/07/08 00:52:04;;;;;;;16.92;11.93;;;;;;;15.77;97.10;97603.09;10422324;28;20060;-55
2022/07/08 00:57:04;;;;;;;16.60;12.07;;;;;;;15.77;96.60;97603.09;10421567;28;20072;-55
2022/07/08 01:02:03;;;;;;;16.90;12.60;;;;;;;15.81;96.53;97614.34;10421429;28;20071;-55
2022/07/08 01:07:02;;;;;;;15.05;11.27;;;;;;;15.66;97.69;97621.63;10421435;28;20064;-56
2022/07/08 01:12:01;;;;;;;19.88;11.65;;;;;;;15.70;97.28;97621.59;10421529;28;20462;-55
2022/07/08 01:17:00;;;;;;;17.77;12.13;;;;;;;15.72;96.83;97625.03;10420936;28;20076;-55
2022/07/08 01:21:59;;;;;;;;;;;;;;;15.72;96.89;97619.78;10420973;28;20106;-55
2022/07/08 01:26:59;;;;;;;16.73;12.13;;;;;;;15.77;96.82;97612.69;10420186;28;19995;-55
2022/07/08 01:32:01;;;;;;;20.75;14.43;;;;;;;15.79;96.82;97614.41;10420522;28;20075;-55
2022/07/08 01:37:01;;;;;;;18.63;14.13;;;;;;;15.83;97.16;97610.81;10419957;28;20098;-56
2022/07/08 01:42:00;;;;;;;15.32;12.50;;;;;;;15.83;97.72;97610.81;10419921;28;20098;-55
2022/07/08 01:46:59;;;;;;;;;;;;;;;15.76;97.85;97621.41;10420555;28;20025;-55
2022/07/08 01:51:58;;;;;;;16.83;13.35;;;;;;;15.72;97.61;97620.66;10418794;28;20375;-55
2022/07/08 01:57:15;;;;;;;15.75;12.57;;;;;;;15.65;97.50;97619.94;10420220;28;20570;-55
2022/07/08 02:02:17;;;;;;;15.38;13.07;;;;;;;15.61;96.86;97623.50;10419318;28;20072;-55
2022/07/08 02:07:16;;;;;;;13.95;11.75;;;;;;;15.58;97.12;97625.34;10419038;28;20479;-55
2022/07/08 02:12:21;;;;;;;;;;;;;;;15.59;97.44;97630.53;10419350;28;20399;-55
2022/07/08 02:17:22;;;;;;;17.45;13.00;;;;;;;15.57;97.29;97627.06;10418266;28;20383;-55
2022/07/08 02:22:22;;;;;;;18.02;13.43;;;;;;;15.54;98.16;97627.16;10418678;28;20064;-55
2022/07/08 02:27:21;;;;;;;21.40;14.57;;;;;;;15.52;97.54;97628.09;10418480;28;20067;-55
2022/07/08 02:32:19;;;;;;;;;;;;;;;15.57;97.57;97634.06;10418331;28;20032;-55
2022/07/08 02:37:19;;;;;;;18.63;14.77;;;;;;;15.55;97.19;97636.75;10417773;28;20383;-55
2022/07/08 02:42:17;;;;;;;18.95;15.35;;;;;;;15.61;97.16;97643.56;10416804;28;20074;-55
2022/07/08 02:47:16;;;;;;;;;;;;;;;15.65;97.07;97647.84;10417883;28;20039;-55
2022/07/08 02:52:15;;;;;;;18.10;14.30;;;;;;;15.67;97.38;97639.06;10417410;28;20450;-55
2022/07/08 02:57:14;;;;;;;;;;;;;;;15.59;97.71;97643.59;10417265;28;20430;-55
2022/07/08 03:02:13;;;;;;;17.20;11.13;;;;;;;15.48;97.36;97647.34;10416779;28;19970;-55
2022/07/08 03:07:12;;;;;;;15.40;11.00;;;;;;;15.41;97.10;97649.25;10417031;28;20060;-55
2022/07/08 03:12:11;;;;;;;;;;;;;;;15.31;97.04;97645.13;10416972;28;20052;-55
2022/07/08 03:17:10;;;;;;;13.68;10.07;;;;;;;15.32;97.17;97638.97;10415981;28;20367;-55
2022/07/08 03:22:09;;;;;;;15.85;10.98;;;;;;;15.31;97.14;97651.19;10416582;28;20028;-55
2022/07/08 03:27:08;;;;;;;14.57;10.85;;;;;;;15.36;96.96;97657.19;10416273;28;20031;-55
2022/07/08 03:32:06;;;;;;;;;;;;;;;15.34;97.70;97665.97;10416372;28;20028;-55
2022/07/08 03:37:05;;;;;;;19.10;11.45;;;;;;;15.18;98.32;97661.06;10415719;28;20335;-56
2022/07/08 03:42:06;;;;;;;14.80;12.32;;;;;;;15.25;98.36;97652.22;10415553;28;20504;-55
2022/07/08 03:47:05;;;;;;;15.65;12.38;;;;;;;15.45;98.01;97664.81;10415357;28;20064;-55
2022/07/08 03:52:04;;;;;;;;;;;;;;;15.61;97.96;97662.75;10416030;28;20074;-55
2022/07/08 03:57:03;;;;;;;15.20;11.03;;;;;;;15.78;97.62;97662.34;10414779;28;19954;-55
2022/07/08 04:02:03;;;;;;;14.02;10.85;;;;;;;15.93;97.37;97665.53;10414726;28;20071;-56
2022/07/08 04:07:02;;;;;;;13.20;9.95;;;;;;;16.07;96.87;97673.94;10414791;28;20059;-55
2022/07/08 04:12:01;;;;;;;;;;;;;;;16.23;96.59;97663.91;10414551;28;20064;-55
2022/07/08 04:16:59;;;;;;;16.23;10.47;;;;;;;16.33;96.28;97665.44;10414497;28;19912;-55
2022/07/08 04:21:58;;;;;;;;;;;;;;;16.47;95.49;97668.53;10415346;28;20120;-56
2022/07/08 04:26:57;;;;;;;13.75;10.85;;;;;;;16.50;95.18;97663.22;10414843;28;19966;-56
2022/07/08 04:31:56;;;;;;;;;;;;;;;16.67;95.07;97672.38;10414930;28;20044;-55
2022/07/08 04:36:55;;;;;;;13.90;9.73;;;;;;;16.74;94.20;97663.47;10413565;28;21092;-55
2022/07/08 04:41:54;;;;;;;13.32;9.85;;;;;;;16.89;93.98;97686.66;10406523;28;20529;-56
2022/07/08 04:46:53;;;;;;;13.90;11.07;;;;;;;17.04;93.47;97680.13;10413847;28;20542;-56
2022/07/08 04:51:51;;;;;;;;;;;;;;;17.14;93.09;97685.97;10401854;28;20457;-56
2022/07/08 04:56:50;;;;;;;14.97;11.63;;;;;;;17.21;92.87;97679.66;10412614;28;19930;-56
2022/07/08 05:01:49;;;;;;;;;;;;;;;17.33;92.83;97676.69;10409037;28;20039;-55
2022/07/08 05:06:48;;;;;;;16.53;12.23;;;;;;;17.44;92.55;97678.97;10419061;28;19995;-55
2022/07/08 05:11:47;;;;;;;15.55;12.30;;;;;;;17.59;91.92;97669.81;10418608;28;20067;-56
2022/07/08 05:16:46;;;;;;;15.15;12.38;;;;;;;17.83;91.33;97659.47;10420618;28;20031;-56
2022/07/08 05:21:45;;;;;;;15.77;11.65;;;;;;;18.08;90.96;97670.91;10419450;28;20577;-56
2022/07/08 05:26:44;;;;;;;15.77;12.32;;;;;;;18.35;90.08;97668.28;10416608;28;20068;-56
2022/07/08 05:31:43;;;;;;;14.10;12.30;;;;;;;18.52;88.35;97671.19;10397240;28;20048;-56
2022/07/08 05:36:42;;;;;;;14.52;11.35;;;;;;;18.79;88.12;97664.13;10392652;28;20038;-56
2022/07/08 05:41:41;;;;;;;15.70;11.13;;;;;;;19.06;87.32;97671.09;10412736;28;20032;-56
2022/07/08 05:46:40;;;;;;;14.52;11.90;;;;;;;19.22;85.62;97669.59;10415542;28;20777;-56
2022/07/08 05:51:39;;;;;;;14.68;11.63;;;;;;;19.34;85.13;97671.78;10413952;28;20351;-56
2022/07/08 05:56:38;;;;;;;14.55;10.70;;;;;;;19.23;83.98;97669.56;10416647;28;20076;-56
2022/07/08 06:01:37;;;;;;;12.95;10.75;;;;;;;19.18;84.61;97670.63;10415039;28;20419;-56
2022/07/08 06:06:36;;;;;;;13.85;11.55;;;;;;;19.01;86.16;97674.72;10411473;28;20041;-56
2022/07/08 06:11:35;;;;;;;12.07;10.68;;;;;;;19.14;85.73;97679.56;10414574;28;20028;-56
2022/07/08 06:16:34;;;;;;;12.73;10.23;;;;;;;19.29;85.29;97668.47;10415672;28;20036;-56
2022/07/08 06:21:33;;;;;;;16.00;10.05;;;;;;;19.55;84.75;97680.63;10411428;28;20028;-56
2022/07/08 06:26:32;;;;;;;11.43;9.10;;;;;;;19.77;83.29;97672.81;10417333;28;20466;-56
2022/07/08 06:31:33;;;;;;;9.93;7.57;;;;;;;19.84;82.04;97663.75;10416973;28;20056;-56
2022/07/08 06:36:32;;;;;;;9.70;8.07;;;;;;;20.09;81.97;97665.38;10416781;28;20499;-56
2022/07/08 06:41:31;;;;;;;10.57;7.40;;;;;;;20.01;80.75;97663.06;10417599;28;20071;-56
2022/07/08 06:46:30;;;;;;;9.60;7.05;;;;;;;20.14;79.58;97660.78;10418044;28;20029;-55
2022/07/08 06:51:29;;;;;;;9.45;7.20;;;;;;;20.50;79.75;97668.13;10419088;28;20040;-55
2022/07/08 06:56:28;;;;;;;9.02;7.45;;;;;;;21.12;78.78;97655.72;10417428;28;20040;-55
2022/07/08 07:01:27;;;;;;;10.50;7.35;;;;;;;21.19;75.68;97658.94;10415887;28;20884;-55
2022/07/08 07:06:26;;;;;;;12.38;7.07;;;;;;;21.55;74.61;97652.00;10416651;28;20565;-55
2022/07/08 07:11:25;;;;;;;10.95;7.03;;;;;;;21.45;74.25;97639.28;10411009;28;20597;-55
2022/07/08 07:16:24;;;;;;;7.95;6.93;;;;;;;;;;10416829;28;20040;-56
2022/07/08 07:21:22;;;;;;;11.05;7.60;;;;;;;22.17;72.22;97630.56;10415574;28;20123;-55
2022/07/08 07:26:21;;;;;;;7.93;6.13;;;;;;;22.12;70.50;97629.94;10416343;28;20044;-55
2022/07/08 07:31:21;;;;;;;7.05;6.25;;;;;;;22.28;69.75;97630.03;10417371;28;20064;-55
2022/07/08 07:36:20;;;;;;;8.93;6.32;;;;;;;22.54;68.78;97626.91;10390132;28;20507;-56
2022/07/08 07:41:19;;;;;;;9.27;6.40;;;;;;;22.60;68.72;97609.91;10415564;28;20086;-55
2022/07/08 07:46:18;;;;;;;8.73;5.60;;;;;;;22.82;68.59;97609.66;10413406;28;20048;-55
2022/07/08 07:51:17;;;;;;;7.20;5.60;;;;;;;22.77;67.10;97623.13;10416079;28;20025;-55
2022/07/08 07:56:16;;;;;;;6.85;5.50;;;;;;;22.93;65.89;97627.59;10415980;28;20024;-56
2022/07/08 08:01:15;;;;;;;7.47;5.63;;;;;;;23.19;66.08;97616.47;10412505;28;20025;-56
2022/07/08 08:06:14;;;;;;;7.57;5.68;;;;;;;23.56;64.63;97610.94;10412291;28;20068;-55
2022/07/08 08:11:13;;;;;;;5.80;5.05;;;;;;;24.01;62.26;97607.50;10415876;28;20044;-56
2022/07/08 08:16:12;;;;;;;6.90;5.43;;;;;;;24.19;60.50;97610.03;10414909;28;20082;-56
2022/07/08 08:21:11;;;;;;;6.90;5.10;;;;;;;24.07;59.37;97616.88;10413853;28;20092;-56
2022/07/08 08:26:10;;;;;;;7.80;4.93;;;;;;;23.36;62.65;97606.75;10413638;28;20040;-56
2022/07/08 08:31:09;;;;;;;6.32;5.03;;;;;;;23.59;62.44;97610.81;10412683;28;20035;-56
2022/07/08 08:36:08;;;;;;;7.85;5.03;;;;;;;24.01;61.46;97610.16;10407429;28;20401;-56
2022/07/08 08:41:08;;;;;;;6.53;4.75;;;;;;;24.42;58.22;97609.53;10417857;28;20072;-56
2022/07/08 08:46:07;;;;;;;4.35;3.92;;;;;;;23.89;58.04;97624.13;10419870;28;20811;-56
2022/07/08 08:51:08;;;;;;;4.55;3.90;;;;;;;23.96;56.95;97606.91;10421839;28;20051;-55
2022/07/08 08:56:15;;;;;;;6.15;4.53;;;;;;;24.30;56.59;97586.41;10422878;28;20060;-56
2022/07/08 09:01:15;;;;;;;6.40;4.30;;;;;;;24.12;56.75;97592.75;10420083;28;20056;-56
2022/07/08 09:06:14;;;;;;;6.15;4.38;;;;;;;23.93;57.09;97598.28;10422266;28;20060;-56
2022/07/08 09:11:13;;;;;;;5.25;4.55;;;;;;;24.22;57.65;97580.72;10423197;28;20048;-56
2022/07/08 09:16:12;;;;;;;5.50;4.43;;;;;;;24.61;56.34;97568.66;10422956;28;20021;-56
2022/07/08 09:21:11;;;;;;;5.25;4.15;;;;;;;24.90;54.90;97570.41;10421919;28;20067;-56
2022/07/08 09:26:10;;;;;;;4.30;3.90;;;;;;;24.68;54.81;97559.34;10422225;28;20468;-55
2022/07/08 09:31:12;;;;;;;6.88;4.30;;;;;;;24.14;55.99;97557.25;10420868;28;20048;-56
2022/07/08 09:36:12;;;;;;;5.20;3.90;;;;;;;24.03;55.81;97557.91;10417638;28;20060;-56
2022/07/08 09:41:16;;;;;;;4.57;4.05;;;;;;;23.91;56.56;97542.72;10419115;28;20064;-56
2022/07/08 09:46:17;;;;;;;4.32;3.67;;;;;;;23.73;56.83;97549.09;10412820;28;20496;-56
2022/07/08 09:51:16;;;;;;;4.78;4.00;;;;;;;23.83;56.30;97523.75;10419241;28;20060;-56
2022/07/08 09:56:15;;;;;;;5.18;3.65;;;;;;;24.14;56.57;97538.69;10419313;28;20060;-56
2022/07/08 10:01:14;;;;;;;4.25;3.78;;;;;;;24.13;55.53;97536.16;10420714;28;20044;-56
2022/07/08 10:06:13;;;;;;;4.30;3.38;;;;;;;23.88;54.82;97536.75;10418598;28;20067;-56
2022/07/08 10:11:13;;;;;;;4.45;3.33;;;;;;;23.92;53.79;97539.13;10418111;28;20107;-56
2022/07/08 10:16:12;;;;;;;4.65;2.95;;;;;;;24.11;51.96;97536.25;10417533;28;20513;-56
2022/07/08 10:21:13;;;;;;;3.40;3.10;;;;;;;24.22;50.61;97527.69;10417722;28;20056;-56
2022/07/08 10:26:13;;;;;;;4.18;2.88;;;;;;;24.31;51.03;97527.13;10418052;28;20443;-56
2022/07/08 10:31:51;;;;;;;5.30;3.03;;;;;;;24.46;50.51;97518.22;10417651;28;20068;-55
2022/07/08 10:36:52;;;;;;;3.35;2.90;;;;;;;24.64;49.56;97504.78;10417498;28;20075;-56
2022/07/08 10:41:58;;;;;;;4.55;2.70;;;;;;;24.83;48.21;97510.66;10417592;28;20068;-56
2022/07/08 10:47:08;;;;;;;3.00;2.60;;;;;;;24.63;47.31;97492.47;10417361;28;20067;-56
2022/07/08 10:52:07;;;;;;;4.10;2.15;;;;;;;24.55;46.34;97473.53;10417674;28;20099;-56
2022/07/08 10:57:09;;;;;;;2.45;2.10;;;;;;;24.72;45.63;97481.28;10417510;28;20066;-56
2022/07/08 11:02:16;;;;;;;3.25;2.10;;;;;;;24.97;45.62;97477.13;10416525;28;20753;-56
2022/07/08 11:07:23;;;;;;;2.25;2.00;;;;;;;25.10;44.01;97464.75;10414318;28;20068;-56
2022/07/08 11:12:31;;;;;;;3.22;2.00;;;;;;;25.47;42.73;97473.81;10415711;28;20063;-56
2022/07/08 11:17:34;;;;;;;5.70;2.40;;;;;;;25.77;41.75;97458.63;10416591;28;20087;-56
2022/07/08 11:22:36;;;;;;;2.80;2.30;;;;;;;25.94;40.68;97458.31;10417709;28;20068;-56
2022/07/08 11:27:35;;;;;;;2.38;1.77;;;;;;;26.11;40.45;97462.47;10416800;28;20060;-56
2022/07/08 11:32:34;;;;;;;2.88;2.03;;;;;;;26.08;39.51;97455.56;10416231;28;20087;-56
2022/07/08 11:37:46;;;;;;;2.85;2.00;;;;;;;26.37;40.53;97450.09;10416097;28;20125;-56
2022/07/08 11:42:45;;;;;;;3.60;2.10;;;;;;;26.28;39.49;97450.72;10416028;28;20475;-56
2022/07/08 11:47:44;;;;;;;2.70;2.50;;;;;;;26.33;39.36;97445.94;10415825;28;20060;-56
2022/07/08 11:52:43;;;;;;;3.47;2.33;;;;;;;26.22;39.70;97437.84;10416145;28;20531;-55
2022/07/08 11:57:43;;;;;;;1.85;1.73;;;;;;;26.22;41.13;97437.84;10415927;28;20422;-55
2022/07/08 12:02:42;;;;;;;2.03;1.83;;;;;;;26.24;40.74;97434.13;10415211;28;20076;-56
2022/07/08 12:07:41;;;;;;;3.67;2.28;;;;;;;26.07;40.36;97418.47;10415132;28;20063;-56
2022/07/08 12:12:39;;;;;;;3.58;2.00;;;;;;;25.91;39.42;97419.50;10415588;28;20052;-56
2022/07/08 12:17:39;;;;;;;8.00;2.33;;;;;;;26.03;40.94;97417.81;10415051;28;20119;-56
2022/07/08 12:22:45;;;;;;;2.40;1.90;;;;;;;25.94;39.74;97418.44;10415594;28;20507;-56
2022/07/08 12:27:54;;;;;;;2.15;1.95;;;;;;;25.89;39.03;97418.75;10414531;28;20075;-56
2022/07/08 12:32:59;;;;;;;1.98;1.85;;;;;;;25.96;39.56;97411.22;10415732;28;20622;-57
2022/07/08 12:38:10;;;;;;;2.22;2.03;;;;;;;26.15;39.58;97416.94;10397269;28;20072;-57
2022/07/08 12:43:11;;;;;;;3.00;2.20;;;;;;;26.28;39.57;97410.84;10414015;28;20075;-56
2022/07/08 12:48:10;;;;;;;2.25;2.05;;;;;;;26.37;39.77;97420.81;10411990;28;20071;-56
2022/07/08 12:53:09;;;;;;;2.53;2.10;;;;;;;26.19;38.60;97416.75;10414967;28;20024;-56
2022/07/08 12:58:08;;;;;;;2.13;1.92;;;;;;;26.05;39.03;97420.38;10416264;28;20075;-56
2022/07/08 13:03:07;;;;;;;2.13;1.92;;;;;;;26.19;39.00;97414.94;10415660;28;20066;-56
2022/07/08 13:08:08;;;;;;;3.88;2.45;;;;;;;26.39;38.74;97404.75;10415695;28;20049;-57
2022/07/08 13:13:07;;;;;;;4.60;2.00;;;;;;;26.61;38.95;97406.75;10415701;28;20075;-57
2022/07/08 13:18:06;;;;;;;2.65;2.20;;;;;;;26.73;38.43;97397.84;10414565;28;20060;-56
2022/07/08 13:23:05;;;;;;;3.65;2.30;;;;;;;26.92;37.92;97394.72;10415147;28;20020;-57
2022/07/08 13:28:04;;;;;;;3.65;2.30;;;;;;;26.87;37.92;97380.91;10422589;28;20474;-57
2022/07/08 13:33:03;;;;;;;2.60;2.13;;;;;;;26.90;38.91;97383.34;10422214;28;20044;-57
2022/07/08 13:38:02;;;;;;;2.28;2.08;;;;;;;27.20;38.24;97388.22;10420804;28;20079;-57
2022/07/08 13:43:01;;;;;;;3.67;2.13;;;;;;;27.18;38.37;97376.81;10420508;28;20035;-56
2022/07/08 13:48:00;;;;;;;4.10;2.40;;;;;;;26.55;40.06;97382.25;10420749;28;20513;-56
2022/07/08 13:52:59;;;;;;;4.60;2.40;;;;;;;26.21;40.12;97382.97;10420481;28;20048;-56
2022/07/08 13:57:58;;;;;;;4.30;2.28;;;;;;;25.91;41.10;97376.13;10418275;28;20131;-55
2022/07/08 14:02:57;;;;;;;6.32;2.80;;;;;;;25.78;41.40;97373.44;10419650;28;20072;-55
2022/07/08 14:07:56;;;;;;;2.60;2.40;;;;;;;25.86;41.62;97367.63;10417141;28;20125;-56
2022/07/08 14:12:55;;;;;;;4.32;2.55;;;;;;;25.89;41.31;97359.44;10419707;28;20095;-57
2022/07/08 14:17:54;;;;;;;2.65;2.45;;;;;;;26.05;41.42;97353.91;10419945;28;20024;-56
2022/07/08 14:22:53;;;;;;;2.92;2.50;;;;;;;26.15;42.01;97344.31;10419988;28;20489;-56
2022/07/08 14:27:52;;;;;;;3.25;2.83;;;;;;;26.20;41.14;97352.00;10419820;28;20020;-56
2022/07/08 14:32:51;;;;;;;2.80;2.47;;;;;;;25.98;41.26;97340.19;10420182;28;20481;-56
2022/07/08 14:37:50;;;;;;;5.85;2.53;;;;;;;25.96;41.56;97342.09;10418677;28;20121;-56
2022/07/08 14:42:49;;;;;;;3.17;2.90;;;;;;;25.84;40.91;97340.31;10419044;28;20028;-56
2022/07/08 14:47:49;;;;;;;3.65;2.63;;;;;;;25.95;41.19;97335.09;10418830;28;20031;-55
2022/07/08 14:52:48;;;;;;;5.72;2.95;;;;;;;26.10;41.27;97326.00;10418331;28;20075;-55
2022/07/08 14:57:47;;;;;;;3.15;2.67;;;;;;;26.39;41.54;97312.47;10418963;28;20110;-56
2022/07/08 15:02:46;;;;;;;3.05;2.80;;;;;;;26.55;40.76;97313.06;10414904;28;20020;-55
2022/07/08 15:07:45;;;;;;;3.70;2.90;;;;;;;26.32;40.95;97316.53;10415485;28;20036;-55
2022/07/08 15:12:44;;;;;;;2.83;2.63;;;;;;;26.29;39.77;97322.91;10415569;28;20120;-55
2022/07/08 15:17:43;;;;;;;4.28;2.92;;;;;;;26.10;40.94;97328.69;10415568;28;20087;-56
2022/07/08 15:22:42;;;;;;;4.53;3.08;;;;;;;26.03;40.85;97337.19;10414986;28;20035;-56
2022/07/08 15:27:41;;;;;;;3.55;2.90;;;;;;;26.07;40.90;97344.84;10415157;28;20109;-56
2022/07/08 15:32:42;;;;;;;3.70;3.10;;;;;;;26.13;41.23;97354.19;10416251;28;20056;-57
2022/07/08 15:37:40;;;;;;;3.30;3.00;;;;;;;25.89;40.43;97360.28;10415287;28;20076;-56
2022/07/08 15:42:39;;;;;;;3.88;3.08;;;;;;;25.71;41.19;97349.13;10408831;28;20123;-56
2022/07/08 15:47:39;;;;;;;4.32;3.20;;;;;;;25.64;41.81;97357.59;10414428;28;20128;-56
2022/07/08 15:52:38;;;;;;;5.07;3.10;;;;;;;25.63;42.09;97362.06;10414322;28;20083;-56
2022/07/08 15:57:39;;;;;;;3.78;3.05;;;;;;;25.69;41.78;97360.78;10414342;28;20032;-56
2022/07/08 16:02:38;;;;;;;6.30;3.30;;;;;;;25.43;41.82;97367.84;10414357;28;20486;-56
2022/07/08 16:07:37;;;;;;;7.15;4.00;;;;;;;25.16;41.78;97360.78;10413924;28;20470;-56
2022/07/08 16:12:36;;;;;;;3.38;3.03;;;;;;;24.99;42.10;97371.66;10414053;28;20461;-56
2022/07/08 16:17:35;;;;;;;4.88;3.40;;;;;;;24.97;42.72;97381.56;10414238;28;20467;-56
2022/07/08 16:22:34;;;;;;;5.13;3.50;;;;;;;24.82;43.13;97365.63;10413166;28;20116;-56
2022/07/08 16:27:33;;;;;;;3.63;3.13;;;;;;;24.77;43.24;97365.06;10412233;28;20483;-56
2022/07/08 16:32:32;;;;;;;4.80;3.35;;;;;;;24.78;43.43;97364.13;10414018;28;20499;-56
2022/07/08 16:37:31;;;;;;;3.70;3.40;;;;;;;24.76;44.09;97355.41;10410138;28;20055;-56
2022/07/08 16:42:30;;;;;;;5.82;3.85;;;;;;;24.70;44.49;97366.41;10412396;28;20059;-56
2022/07/08 16:47:29;;;;;;;5.07;3.50;;;;;;;24.61;44.90;97374.97;10413634;28;20072;-56
2022/07/08 16:52:28;;;;;;;5.45;3.45;;;;;;;24.42;45.48;97381.44;10413059;28;20112;-57
2022/07/08 16:57:27;;;;;;;6.97;3.67;;;;;;;24.34;45.90;97386.38;10406501;28;20048;-56
2022/07/08 17:02:26;;;;;;;4.47;3.88;;;;;;;24.18;46.07;97401.53;10420460;28;20410;-56
2022/07/08 17:07:25;;;;;;;7.35;4.53;;;;;;;24.11;46.52;97400.19;10420660;28;20076;-56
2022/07/08 17:12:24;;;;;;;4.97;4.38;;;;;;;23.98;46.70;97405.38;10418723;28;20033;-58
2022/07/08 17:17:23;;;;;;;7.35;5.18;;;;;;;23.83;46.69;97401.88;10421123;28;20048;-56
2022/07/08 17:22:23;;;;;;;5.57;4.25;;;;;;;23.67;47.55;97395.78;10419457;28;20759;-56
2022/07/08 17:27:21;;;;;;;6.80;4.25;;;;;;;23.72;47.77;97415.75;10413247;28;20072;-56
2022/07/08 17:32:22;;;;;;;6.40;4.60;;;;;;;23.66;48.31;97420.59;10419256;28;20103;-56
2022/07/08 17:37:23;;;;;;;4.65;4.07;;;;;;;23.53;48.38;97421.28;10418998;28;20478;-56
2022/07/08 17:42:22;;;;;;;5.93;4.50;;;;;;;23.45;48.65;97428.81;10418112;28;20063;-56
2022/07/08 17:47:21;;;;;;;5.80;3.92;;;;;;;23.42;48.98;97429.84;10417638;28;20091;-56
2022/07/08 17:52:20;;;;;;;6.38;4.63;;;;;;;23.29;49.56;97417.41;10418759;28;20500;-56
2022/07/08 17:57:20;;;;;;;7.18;4.75;;;;;;;23.27;49.86;97441.31;10417478;28;20489;-59
2022/07/08 18:02:19;;;;;;;8.90;4.93;;;;;;;23.14;50.19;97443.81;10412865;28;20072;-57
2022/07/08 18:07:18;;;;;;;7.47;4.65;;;;;;;22.98;50.71;97440.31;10418089;28;20067;-56
2022/07/08 18:12:17;;;;;;;7.18;5.88;;;;;;;22.90;51.64;97459.25;10407016;28;20569;-57
2022/07/08 18:17:16;;;;;;;5.57;4.30;;;;;;;22.59;53.96;97487.34;10400325;28;20139;-57
2022/07/08 18:22:15;;;;;;;7.35;4.07;;;;;;;22.00;57.72;97499.28;10400133;28;20040;-56
2022/07/08 18:27:14;;;;;;;4.22;3.83;;;;;;;21.23;62.52;97504.84;10414231;28;20048;-56
2022/07/08 18:32:14;;;;;;;6.05;3.58;;;;;;;20.99;63.77;97528.81;10415135;28;20481;-56
2022/07/08 18:37:14;;;;;;;5.18;3.72;;;;;;;20.77;65.72;97541.25;10416707;28;20526;-57
2022/07/08 18:42:13;;;;;;;7.15;4.20;;;;;;;20.63;66.71;97555.94;10416965;28;20095;-56
2022/07/08 18:47:12;;;;;;;5.28;3.60;;;;;;;20.65;66.08;97569.88;10416509;28;20455;-56
2022/07/08 18:52:11;;;;;;;4.82;4.25;;;;;;;20.70;66.59;97572.31;10416567;28;20506;-56
2022/07/08 18:57:10;;;;;;;5.25;3.70;;;;;;;20.55;67.42;97578.28;10394963;28;20068;-56
2022/07/08 19:02:09;;;;;;;5.93;3.83;;;;;;;20.37;67.92;97587.81;10412009;28;20072;-57
2022/07/08 19:07:08;;;;;;;6.22;4.60;;;;;;;20.22;71.11;97586.69;10416038;28;20470;-56
2022/07/08 19:12:07;;;;;;;4.68;3.72;;;;;;;20.18;72.42;97598.28;10414633;28;20051;-57
2022/07/08 19:17:06;;;;;;;4.38;3.85;;;;;;;20.04;71.37;97604.13;10416167;28;20510;-56
2022/07/08 19:22:05;;;;;;;5.40;3.90;;;;;;;20.04;71.23;97604.13;10414336;28;20068;-56
2022/07/08 19:27:05;;;;;;;5.00;3.70;;;;;;;20.06;70.55;97605.78;10415188;28;20032;-56
2022/07/08 19:32:04;;;;;;;6.25;4.60;;;;;;;20.12;71.73;97611.69;10415905;28;20451;-56
2022/07/08 19:37:03;;;;;;;6.45;4.90;;;;;;;20.12;75.30;97623.13;10414560;28;20084;-56
2022/07/08 19:42:03;;;;;;;7.95;5.22;;;;;;;20.08;77.08;97625.00;10413145;28;20467;-56
2022/07/08 19:47:02;;;;;;;7.10;5.53;;;;;;;20.00;79.15;97620.97;10414974;28;20064;-55
2022/07/08 19:52:01;;;;;;;7.78;6.07;;;;;;;19.91;80.77;97624.84;10413844;28;20476;-55
2022/07/08 19:57:00;;;;;;;8.88;6.00;;;;;;;19.79;82.25;97615.69;10414242;28;20491;-55
2022/07/08 20:01:59;;;;;;;8.88;6.05;;;;;;;19.75;82.94;97615.88;10407812;28;20037;-56
2022/07/08 20:06:58;;;;;;;7.65;5.70;;;;;;;19.69;84.28;97616.94;10414035;28;20044;-56
2022/07/08 20:11:58;;;;;;;7.75;6.13;;;;;;;19.59;84.96;97599.81;10414225;28;20036;-55
2022/07/08 20:16:58;;;;;;;8.85;6.38;;;;;;;19.47;85.27;97595.00;10414321;28;20483;-56
2022/07/08 20:21:57;;;;;;;8.00;5.47;;;;;;;19.42;86.32;97605.72;10412305;28;20500;-56
2022/07/08 20:26:58;;;;;;;8.90;6.07;;;;;;;19.37;86.60;97598.00;10414481;28;20473;-55
2022/07/08 20:31:57;;;;;;;7.32;5.75;;;;;;;19.29;87.39;97597.44;10406948;28;20507;-55
2022/07/08 20:36:56;;;;;;;7.05;5.90;;;;;;;19.22;87.59;97580.16;10420814;28;20585;-55
2022/07/08 20:47:12;;;;;;;6.97;5.72;;;;;;;19.13;87.82;97585.78;10421952;28;20060;-55
2022/07/08 20:52:11;;;;;;;7.55;6.10;;;;;;;19.06;88.06;97584.28;10421651;28;20107;-55
2022/07/08 20:57:10;;;;;;;7.10;5.63;;;;;;;19.02;88.29;97583.56;10421019;28;20032;-56
2022/07/08 21:02:10;;;;;;;7.82;5.85;;;;;;;18.98;88.79;97574.94;10415687;28;20137;-56
2022/07/08 21:07:09;;;;;;;9.50;6.47;;;;;;;19.01;88.79;97584.47;10420474;28;20091;-56
2022/07/08 21:12:08;;;;;;;8.25;5.95;;;;;;;18.98;88.86;97581.97;10420513;28;20396;-56
2022/07/08 21:17:06;;;;;;;7.70;5.93;;;;;;;18.95;88.75;97577.69;10420679;28;20076;-55
2022/07/08 21:22:05;;;;;;;8.40;5.55;;;;;;;18.88;88.57;97570.94;10420090;28;20043;-56
2022/07/08 21:27:05;;;;;;;10.23;5.75;;;;;;;18.82;88.82;97568.53;10421869;28;20525;-56
2022/07/08 21:32:04;;;;;;;6.88;5.18;;;;;;;18.80;88.65;97563.31;10421678;28;20491;-56
2022/07/08 21:37:05;;;;;;;6.63;5.93;;;;;;;18.82;88.84;97566.75;10417532;28;20517;-56
2022/07/08 21:42:04;;;;;;;6.30;5.50;;;;;;;18.82;88.68;97566.75;10422306;28;20083;-56
2022/07/08 21:47:03;;;;;;;8.00;6.38;;;;;;;18.78;88.56;97559.91;10421880;28;20079;-59
2022/07/08 21:52:02;;;;;;;7.78;5.70;;;;;;;18.76;88.69;97563.47;10422550;28;20067;-57
2022/07/08 21:57:01;;;;;;;9.13;7.05;;;;;;;18.67;89.02;97555.94;10421807;28;20060;-57
2022/07/08 22:02:00;;;;;;;9.07;6.53;;;;;;;18.63;89.30;97556.94;10422064;28;20070;-57
2022/07/08 22:06:59;;;;;;;8.55;5.72;;;;;;;18.54;89.26;97550.25;10415912;28;20063;-57
2022/07/08 22:11:58;;;;;;;7.65;5.63;;;;;;;18.55;89.87;97558.09;10421538;28;20028;-57
2022/07/08 22:16:58;;;;;;;9.63;6.90;;;;;;;18.56;89.90;97562.41;10421653;28;20169;-56
2022/07/08 22:21:57;;;;;;;8.05;5.97;;;;;;;18.56;90.33;97557.16;10420042;28;20083;-56
2022/07/08 22:26:56;;;;;;;7.95;6.07;;;;;;;18.54;90.91;97564.25;10418408;28;20140;-57
2022/07/08 22:31:55;;;;;;;9.07;6.25;;;;;;;18.52;91.11;97568.69;10418544;28;20064;-56
2022/07/08 22:36:54;;;;;;;10.90;6.72;;;;;;;18.50;91.13;97567.03;10410452;28;20036;-57
2022/07/08 22:41:53;;;;;;;6.93;5.93;;;;;;;18.34;91.66;97556.25;10417060;28;20039;-56
2022/07/08 22:46:52;;;;;;;9.75;6.78;;;;;;;18.44;91.76;97573.38;10416944;28;20079;-57
2022/07/08 22:51:51;;;;;;;8.80;6.90;;;;;;;18.47;91.75;97573.25;10416811;28;20047;-57
2022/07/08 22:56:51;;;;;;;7.68;6.28;;;;;;;18.47;91.86;97582.91;10414937;28;20037;-56
2022/07/08 23:01:50;;;;;;;9.57;6.85;;;;;;;18.49;92.17;97583.72;10416523;28;20523;-56
2022/07/08 23:06:49;;;;;;;11.18;7.50;;;;;;;18.43;92.53;97574.28;10409974;28;20528;-56
2022/07/08 23:11:48;;;;;;;9.25;8.13;;;;;;;18.50;93.13;97594.19;10416127;28;20043;-57
2022/07/08 23:16:48;;;;;;;9.55;7.47;;;;;;;18.49;93.32;97602.13;10415203;28;20499;-56
2022/07/08 23:21:47;;;;;;;10.85;7.05;;;;;;;18.48;93.65;97600.38;10415912;28;20083;-56